sensor_id;sensor_type;location;lat;lon;timestamp;temperature;humidity
66019;HTU21D;52787;51.084;5.816;2024-03-17T00:00:05;9.45;74.73
66019;HTU21D;52787;51.084;5.816;2024-03-17T00:02:32;9.48;74.70
66019;HTU21D;52787;51.084;5.816;2024-03-17T00:04:57;9.48;74.70
66019;HTU21D;52787;51.084;5.816;2024-03-17T00:07:23;9.50;74.77
66019;HTU21D;52787;51.084;5.816;2024-03-17T00:09:49;9.46;74.90
66019;HTU21D;52787;51.084;5.816;2024-03-17T00:12:14;9.47;74.99
66019;HTU21D;52787;51.084;5.816;2024-03-17T00:14:41;9.42;75.15
66019;HTU21D;52787;51.084;5.816;2024-03-17T00:17:08;9.41;75.51
66019;HTU21D;52787;51.084;5.816;2024-03-17T00:19:34;9.48;75.41
66019;HTU21D;52787;51.084;5.816;2024-03-17T00:22:00;9.51;75.27
66019;HTU21D;52787;51.084;5.816;2024-03-17T00:24:25;9.51;75.21
66019;HTU21D;52787;51.084;5.816;2024-03-17T00:26:51;9.55;75.13
66019;HTU21D;52787;51.084;5.816;2024-03-17T00:29:17;9.55;74.96
66019;HTU21D;52787;51.084;5.816;2024-03-17T00:31:42;9.54;74.97
66019;HTU21D;52787;51.084;5.816;2024-03-17T00:34:08;9.53;75.09
66019;HTU21D;52787;51.084;5.816;2024-03-17T00:36:34;9.55;74.97
66019;HTU21D;52787;51.084;5.816;2024-03-17T00:39:00;9.56;74.92
66019;HTU21D;52787;51.084;5.816;2024-03-17T00:41:26;9.52;75.02
66019;HTU21D;52787;51.084;5.816;2024-03-17T00:43:52;9.53;75.05
66019;HTU21D;52787;51.084;5.816;2024-03-17T00:46:21;9.54;74.98
66019;HTU21D;52787;51.084;5.816;2024-03-17T00:48:48;9.56;74.93
66019;HTU21D;52787;51.084;5.816;2024-03-17T00:51:14;9.56;74.89
66019;HTU21D;52787;51.084;5.816;2024-03-17T00:53:40;9.56;74.86
66019;HTU21D;52787;51.084;5.816;2024-03-17T00:56:06;9.57;74.95
66019;HTU21D;52787;51.084;5.816;2024-03-17T00:58:32;9.55;74.99
66019;HTU21D;52787;51.084;5.816;2024-03-17T01:00:58;9.51;75.08
66019;HTU21D;52787;51.084;5.816;2024-03-17T01:03:24;9.47;75.18
66019;HTU21D;52787;51.084;5.816;2024-03-17T01:05:50;9.49;75.10
66019;HTU21D;52787;51.084;5.816;2024-03-17T01:08:18;9.50;74.96
66019;HTU21D;52787;51.084;5.816;2024-03-17T01:10:46;9.48;74.94
66019;HTU21D;52787;51.084;5.816;2024-03-17T01:13:17;9.50;74.88
66019;HTU21D;52787;51.084;5.816;2024-03-17T01:15:43;9.48;74.86
66019;HTU21D;52787;51.084;5.816;2024-03-17T01:18:09;9.42;74.94
66019;HTU21D;52787;51.084;5.816;2024-03-17T01:20:37;9.40;75.09
66019;HTU21D;52787;51.084;5.816;2024-03-17T01:23:04;9.34;75.08
66019;HTU21D;52787;51.084;5.816;2024-03-17T01:25:30;9.31;75.12
66019;HTU21D;52787;51.084;5.816;2024-03-17T01:27:57;9.26;75.15
66019;HTU21D;52787;51.084;5.816;2024-03-17T01:30:23;9.24;75.26
66019;HTU21D;52787;51.084;5.816;2024-03-17T01:32:52;9.20;75.15
66019;HTU21D;52787;51.084;5.816;2024-03-17T01:35:18;9.19;75.20
66019;HTU21D;52787;51.084;5.816;2024-03-17T01:37:44;9.15;75.21
66019;HTU21D;52787;51.084;5.816;2024-03-17T01:40:10;9.14;75.14
66019;HTU21D;52787;51.084;5.816;2024-03-17T01:42:40;9.09;75.12
66019;HTU21D;52787;51.084;5.816;2024-03-17T01:45:30;9.07;75.35
66019;HTU21D;52787;51.084;5.816;2024-03-17T01:47:59;9.03;75.42
66019;HTU21D;52787;51.084;5.816;2024-03-17T01:50:31;9.02;75.47
66019;HTU21D;52787;51.084;5.816;2024-03-17T01:53:09;9.00;75.33
66019;HTU21D;52787;51.084;5.816;2024-03-17T01:55:43;9.00;75.15
66019;HTU21D;52787;51.084;5.816;2024-03-17T01:58:10;8.96;75.23
66019;HTU21D;52787;51.084;5.816;2024-03-17T02:00:37;8.95;75.25
66019;HTU21D;52787;51.084;5.816;2024-03-17T02:03:07;8.94;75.21
66019;HTU21D;52787;51.084;5.816;2024-03-17T02:05:35;8.95;75.23
66019;HTU21D;52787;51.084;5.816;2024-03-17T02:08:04;8.92;75.14
66019;HTU21D;52787;51.084;5.816;2024-03-17T02:10:37;8.91;75.26
66019;HTU21D;52787;51.084;5.816;2024-03-17T02:13:03;8.92;75.36
66019;HTU21D;52787;51.084;5.816;2024-03-17T02:15:30;8.95;75.42
66019;HTU21D;52787;51.084;5.816;2024-03-17T02:17:56;9.02;75.13
66019;HTU21D;52787;51.084;5.816;2024-03-17T02:20:22;9.05;75.15
66019;HTU21D;52787;51.084;5.816;2024-03-17T02:23:11;9.06;75.27
66019;HTU21D;52787;51.084;5.816;2024-03-17T02:25:37;9.08;75.26
66019;HTU21D;52787;51.084;5.816;2024-03-17T02:28:04;9.07;75.19
66019;HTU21D;52787;51.084;5.816;2024-03-17T02:30:32;9.08;75.40
66019;HTU21D;52787;51.084;5.816;2024-03-17T02:32:58;9.06;75.50
66019;HTU21D;52787;51.084;5.816;2024-03-17T02:35:24;9.08;75.55
66019;HTU21D;52787;51.084;5.816;2024-03-17T02:37:50;9.08;75.66
66019;HTU21D;52787;51.084;5.816;2024-03-17T02:40:16;9.11;75.50
66019;HTU21D;52787;51.084;5.816;2024-03-17T02:42:43;9.11;75.42
66019;HTU21D;52787;51.084;5.816;2024-03-17T02:45:13;9.14;75.44
66019;HTU21D;52787;51.084;5.816;2024-03-17T02:47:39;9.14;75.39
66019;HTU21D;52787;51.084;5.816;2024-03-17T02:50:05;9.15;75.31
66019;HTU21D;52787;51.084;5.816;2024-03-17T02:52:32;9.17;75.23
66019;HTU21D;52787;51.084;5.816;2024-03-17T02:54:57;9.15;75.20
66019;HTU21D;52787;51.084;5.816;2024-03-17T02:57:25;9.18;75.15
66019;HTU21D;52787;51.084;5.816;2024-03-17T02:59:55;9.21;75.12
66019;HTU21D;52787;51.084;5.816;2024-03-17T03:02:22;9.20;75.09
66019;HTU21D;52787;51.084;5.816;2024-03-17T03:04:48;9.20;75.23
66019;HTU21D;52787;51.084;5.816;2024-03-17T03:07:14;9.20;75.28
66019;HTU21D;52787;51.084;5.816;2024-03-17T03:09:40;9.22;75.41
66019;HTU21D;52787;51.084;5.816;2024-03-17T03:12:06;9.26;75.34
66019;HTU21D;52787;51.084;5.816;2024-03-17T03:14:33;9.29;75.33
66019;HTU21D;52787;51.084;5.816;2024-03-17T03:16:59;9.29;75.50
66019;HTU21D;52787;51.084;5.816;2024-03-17T03:19:26;9.26;75.44
66019;HTU21D;52787;51.084;5.816;2024-03-17T03:21:53;9.29;75.38
66019;HTU21D;52787;51.084;5.816;2024-03-17T03:24:19;9.30;75.31
66019;HTU21D;52787;51.084;5.816;2024-03-17T03:26:44;9.33;75.34
66019;HTU21D;52787;51.084;5.816;2024-03-17T03:29:10;9.33;75.34
66019;HTU21D;52787;51.084;5.816;2024-03-17T03:31:37;9.33;75.37
66019;HTU21D;52787;51.084;5.816;2024-03-17T03:34:04;9.34;75.24
66019;HTU21D;52787;51.084;5.816;2024-03-17T03:36:34;9.35;74.99
66019;HTU21D;52787;51.084;5.816;2024-03-17T03:39:03;9.38;74.80
66019;HTU21D;52787;51.084;5.816;2024-03-17T03:41:36;9.36;74.76
66019;HTU21D;52787;51.084;5.816;2024-03-17T03:44:02;9.36;74.82
66019;HTU21D;52787;51.084;5.816;2024-03-17T03:46:27;9.35;74.81
66019;HTU21D;52787;51.084;5.816;2024-03-17T03:48:53;9.34;74.99
66019;HTU21D;52787;51.084;5.816;2024-03-17T03:51:19;9.34;75.20
66019;HTU21D;52787;51.084;5.816;2024-03-17T03:53:45;9.35;75.16
66019;HTU21D;52787;51.084;5.816;2024-03-17T03:56:11;9.32;75.24
66019;HTU21D;52787;51.084;5.816;2024-03-17T03:58:38;9.30;75.22
66019;HTU21D;52787;51.084;5.816;2024-03-17T04:01:09;9.33;75.27
66019;HTU21D;52787;51.084;5.816;2024-03-17T04:03:37;9.38;75.01
66019;HTU21D;52787;51.084;5.816;2024-03-17T04:06:07;9.41;74.55
66019;HTU21D;52787;51.084;5.816;2024-03-17T04:08:35;9.46;74.11
66019;HTU21D;52787;51.084;5.816;2024-03-17T04:11:03;9.50;73.86
66019;HTU21D;52787;51.084;5.816;2024-03-17T04:13:30;9.50;73.67
66019;HTU21D;52787;51.084;5.816;2024-03-17T04:16:00;9.52;73.75
66019;HTU21D;52787;51.084;5.816;2024-03-17T04:18:31;9.51;73.74
66019;HTU21D;52787;51.084;5.816;2024-03-17T04:21:04;9.51;73.65
66019;HTU21D;52787;51.084;5.816;2024-03-17T04:23:32;9.48;73.80
66019;HTU21D;52787;51.084;5.816;2024-03-17T04:25:59;9.48;73.96
66019;HTU21D;52787;51.084;5.816;2024-03-17T04:28:27;9.42;73.93
66019;HTU21D;52787;51.084;5.816;2024-03-17T04:30:52;9.40;73.96
66019;HTU21D;52787;51.084;5.816;2024-03-17T04:33:18;9.36;73.95
66019;HTU21D;52787;51.084;5.816;2024-03-17T04:35:44;9.29;74.15
66019;HTU21D;52787;51.084;5.816;2024-03-17T04:38:11;9.22;74.19
66019;HTU21D;52787;51.084;5.816;2024-03-17T04:40:41;9.15;74.25
66019;HTU21D;52787;51.084;5.816;2024-03-17T04:43:07;9.08;74.38
66019;HTU21D;52787;51.084;5.816;2024-03-17T04:45:33;9.03;74.43
66019;HTU21D;52787;51.084;5.816;2024-03-17T04:48:03;8.98;74.38
66019;HTU21D;52787;51.084;5.816;2024-03-17T04:50:29;8.94;74.39
66019;HTU21D;52787;51.084;5.816;2024-03-17T04:52:58;8.92;74.44
66019;HTU21D;52787;51.084;5.816;2024-03-17T04:55:25;8.93;74.35
66019;HTU21D;52787;51.084;5.816;2024-03-17T04:57:51;8.94;74.18
66019;HTU21D;52787;51.084;5.816;2024-03-17T05:00:17;8.90;74.24
66019;HTU21D;52787;51.084;5.816;2024-03-17T05:02:44;8.88;74.38
66019;HTU21D;52787;51.084;5.816;2024-03-17T05:05:10;8.86;74.42
66019;HTU21D;52787;51.084;5.816;2024-03-17T05:07:37;8.80;74.54
66019;HTU21D;52787;51.084;5.816;2024-03-17T05:10:04;8.79;74.57
66019;HTU21D;52787;51.084;5.816;2024-03-17T05:12:31;8.78;74.55
66019;HTU21D;52787;51.084;5.816;2024-03-17T05:14:57;8.77;74.64
66019;HTU21D;52787;51.084;5.816;2024-03-17T05:17:23;8.77;74.75
66019;HTU21D;52787;51.084;5.816;2024-03-17T05:19:48;8.77;74.88
66019;HTU21D;52787;51.084;5.816;2024-03-17T05:22:14;8.83;74.86
66019;HTU21D;52787;51.084;5.816;2024-03-17T05:24:40;8.88;74.61
66019;HTU21D;52787;51.084;5.816;2024-03-17T05:27:05;8.92;74.54
66019;HTU21D;52787;51.084;5.816;2024-03-17T05:29:31;8.96;74.44
66019;HTU21D;52787;51.084;5.816;2024-03-17T05:31:57;9.00;74.32
66019;HTU21D;52787;51.084;5.816;2024-03-17T05:34:23;9.00;74.38
66019;HTU21D;52787;51.084;5.816;2024-03-17T05:36:50;8.97;74.51
66019;HTU21D;52787;51.084;5.816;2024-03-17T05:39:16;8.97;74.60
66019;HTU21D;52787;51.084;5.816;2024-03-17T05:41:42;9.00;74.67
66019;HTU21D;52787;51.084;5.816;2024-03-17T05:44:09;9.04;74.60
66019;HTU21D;52787;51.084;5.816;2024-03-17T05:46:35;9.11;74.35
66019;HTU21D;52787;51.084;5.816;2024-03-17T05:49:01;9.12;74.15
66019;HTU21D;52787;51.084;5.816;2024-03-17T05:51:29;9.16;74.00
66019;HTU21D;52787;51.084;5.816;2024-03-17T05:53:54;9.16;73.90
66019;HTU21D;52787;51.084;5.816;2024-03-17T05:56:21;9.18;73.96
66019;HTU21D;52787;51.084;5.816;2024-03-17T05:58:48;9.19;73.99
66019;HTU21D;52787;51.084;5.816;2024-03-17T06:01:14;9.17;73.93
66019;HTU21D;52787;51.084;5.816;2024-03-17T06:03:40;9.18;73.70
66019;HTU21D;52787;51.084;5.816;2024-03-17T06:06:07;9.18;73.52
66019;HTU21D;52787;51.084;5.816;2024-03-17T06:08:35;9.16;73.35
66019;HTU21D;52787;51.084;5.816;2024-03-17T06:11:01;9.12;73.46
66019;HTU21D;52787;51.084;5.816;2024-03-17T06:13:27;9.14;73.46
66019;HTU21D;52787;51.084;5.816;2024-03-17T06:15:54;9.11;73.48
66019;HTU21D;52787;51.084;5.816;2024-03-17T06:18:20;9.11;73.36
66019;HTU21D;52787;51.084;5.816;2024-03-17T06:20:47;9.14;73.22
66019;HTU21D;52787;51.084;5.816;2024-03-17T06:23:16;9.15;73.22
66019;HTU21D;52787;51.084;5.816;2024-03-17T06:25:44;9.16;73.02
66019;HTU21D;52787;51.084;5.816;2024-03-17T06:28:13;9.16;72.99
66019;HTU21D;52787;51.084;5.816;2024-03-17T06:30:44;9.17;73.12
66019;HTU21D;52787;51.084;5.816;2024-03-17T06:33:15;9.20;73.00
66019;HTU21D;52787;51.084;5.816;2024-03-17T06:35:45;9.21;72.92
66019;HTU21D;52787;51.084;5.816;2024-03-17T06:38:13;9.25;72.74
66019;HTU21D;52787;51.084;5.816;2024-03-17T06:40:41;9.29;72.63
66019;HTU21D;52787;51.084;5.816;2024-03-17T06:43:07;9.31;72.62
66019;HTU21D;52787;51.084;5.816;2024-03-17T06:45:36;9.34;72.63
66019;HTU21D;52787;51.084;5.816;2024-03-17T06:48:02;9.39;72.35
66019;HTU21D;52787;51.084;5.816;2024-03-17T06:50:28;9.46;71.90
66019;HTU21D;52787;51.084;5.816;2024-03-17T06:52:53;9.51;71.69
66019;HTU21D;52787;51.084;5.816;2024-03-17T06:55:19;9.54;71.66
66019;HTU21D;52787;51.084;5.816;2024-03-17T06:57:46;9.57;71.64
66019;HTU21D;52787;51.084;5.816;2024-03-17T07:00:14;9.64;71.45
66019;HTU21D;52787;51.084;5.816;2024-03-17T07:02:45;9.70;71.34
66019;HTU21D;52787;51.084;5.816;2024-03-17T07:05:14;9.83;71.29
66019;HTU21D;52787;51.084;5.816;2024-03-17T07:07:44;9.98;70.97
66019;HTU21D;52787;51.084;5.816;2024-03-17T07:10:11;10.11;70.61
66019;HTU21D;52787;51.084;5.816;2024-03-17T07:12:41;10.24;70.52
66019;HTU21D;52787;51.084;5.816;2024-03-17T07:15:08;10.37;70.26
66019;HTU21D;52787;51.084;5.816;2024-03-17T07:17:37;10.44;69.89
66019;HTU21D;52787;51.084;5.816;2024-03-17T07:20:03;10.53;69.70
66019;HTU21D;52787;51.084;5.816;2024-03-17T07:22:33;10.59;69.56
66019;HTU21D;52787;51.084;5.816;2024-03-17T07:24:59;10.68;69.64
66019;HTU21D;52787;51.084;5.816;2024-03-17T07:27:28;10.80;69.69
66019;HTU21D;52787;51.084;5.816;2024-03-17T07:29:54;10.90;69.29
66019;HTU21D;52787;51.084;5.816;2024-03-17T07:32:20;11.01;68.83
66019;HTU21D;52787;51.084;5.816;2024-03-17T07:34:45;11.07;68.44
66019;HTU21D;52787;51.084;5.816;2024-03-17T07:37:11;11.15;68.23
66019;HTU21D;52787;51.084;5.816;2024-03-17T07:39:37;11.16;68.13
66019;HTU21D;52787;51.084;5.816;2024-03-17T07:42:03;11.17;68.26
66019;HTU21D;52787;51.084;5.816;2024-03-17T07:44:29;11.22;68.14
66019;HTU21D;52787;51.084;5.816;2024-03-17T07:47:00;11.19;68.10
66019;HTU21D;52787;51.084;5.816;2024-03-17T07:49:26;11.25;68.13
66019;HTU21D;52787;51.084;5.816;2024-03-17T07:51:52;11.26;68.21
66019;HTU21D;52787;51.084;5.816;2024-03-17T07:54:18;11.33;68.36
66019;HTU21D;52787;51.084;5.816;2024-03-17T07:56:45;11.46;68.39
66019;HTU21D;52787;51.084;5.816;2024-03-17T07:59:12;11.61;68.00
66019;HTU21D;52787;51.084;5.816;2024-03-17T08:01:41;11.72;67.52
66019;HTU21D;52787;51.084;5.816;2024-03-17T08:04:07;11.78;66.94
66019;HTU21D;52787;51.084;5.816;2024-03-17T08:06:33;11.79;66.78
66019;HTU21D;52787;51.084;5.816;2024-03-17T08:08:59;11.87;66.85
66019;HTU21D;52787;51.084;5.816;2024-03-17T08:11:24;11.93;66.56
66019;HTU21D;52787;51.084;5.816;2024-03-17T08:13:50;11.99;66.56
66019;HTU21D;52787;51.084;5.816;2024-03-17T08:16:16;12.05;66.48
66019;HTU21D;52787;51.084;5.816;2024-03-17T08:18:45;12.14;66.58
66019;HTU21D;52787;51.084;5.816;2024-03-17T08:21:11;12.29;66.48
66019;HTU21D;52787;51.084;5.816;2024-03-17T08:23:36;12.43;66.16
66019;HTU21D;52787;51.084;5.816;2024-03-17T08:26:08;12.58;65.98
66019;HTU21D;52787;51.084;5.816;2024-03-17T08:28:34;12.71;65.50
66019;HTU21D;52787;51.084;5.816;2024-03-17T08:31:02;12.82;64.64
66019;HTU21D;52787;51.084;5.816;2024-03-17T08:33:29;12.92;64.95
66019;HTU21D;52787;51.084;5.816;2024-03-17T08:36:03;13.02;64.64
66019;HTU21D;52787;51.084;5.816;2024-03-17T08:38:32;13.11;64.23
66019;HTU21D;52787;51.084;5.816;2024-03-17T08:41:04;13.22;63.75
66019;HTU21D;52787;51.084;5.816;2024-03-17T08:43:35;13.31;63.47
66019;HTU21D;52787;51.084;5.816;2024-03-17T08:46:02;13.38;63.21
66019;HTU21D;52787;51.084;5.816;2024-03-17T08:48:32;13.45;63.34
66019;HTU21D;52787;51.084;5.816;2024-03-17T08:51:01;13.53;63.08
66019;HTU21D;52787;51.084;5.816;2024-03-17T08:53:28;13.62;63.17
66019;HTU21D;52787;51.084;5.816;2024-03-17T08:55:55;13.75;62.95
66019;HTU21D;52787;51.084;5.816;2024-03-17T08:58:22;13.85;62.28
66019;HTU21D;52787;51.084;5.816;2024-03-17T09:00:48;13.93;61.86
66019;HTU21D;52787;51.084;5.816;2024-03-17T09:03:15;13.96;61.54
66019;HTU21D;52787;51.084;5.816;2024-03-17T09:05:45;13.99;61.60
66019;HTU21D;52787;51.084;5.816;2024-03-17T09:08:22;14.03;60.91
66019;HTU21D;52787;51.084;5.816;2024-03-17T09:10:51;14.08;60.86
66019;HTU21D;52787;51.084;5.816;2024-03-17T09:13:25;14.11;61.28
66019;HTU21D;52787;51.084;5.816;2024-03-17T09:15:59;14.05;61.91
66019;HTU21D;52787;51.084;5.816;2024-03-17T09:18:34;14.01;62.36
66019;HTU21D;52787;51.084;5.816;2024-03-17T09:21:01;14.01;62.50
66019;HTU21D;52787;51.084;5.816;2024-03-17T09:23:29;14.06;62.22
66019;HTU21D;52787;51.084;5.816;2024-03-17T09:26:10;14.09;62.47
66019;HTU21D;52787;51.084;5.816;2024-03-17T09:28:43;14.22;62.16
66019;HTU21D;52787;51.084;5.816;2024-03-17T09:31:10;14.30;62.02
66019;HTU21D;52787;51.084;5.816;2024-03-17T09:33:37;14.41;61.62
66019;HTU21D;52787;51.084;5.816;2024-03-17T09:36:08;14.55;61.28
66019;HTU21D;52787;51.084;5.816;2024-03-17T09:38:37;14.68;60.61
66019;HTU21D;52787;51.084;5.816;2024-03-17T09:41:03;14.84;60.67
66019;HTU21D;52787;51.084;5.816;2024-03-17T09:43:35;14.96;60.00
66019;HTU21D;52787;51.084;5.816;2024-03-17T09:46:05;15.06;59.41
66019;HTU21D;52787;51.084;5.816;2024-03-17T09:48:32;15.12;59.62
66019;HTU21D;52787;51.084;5.816;2024-03-17T09:51:03;15.29;59.04
66019;HTU21D;52787;51.084;5.816;2024-03-17T09:53:35;15.43;58.38
66019;HTU21D;52787;51.084;5.816;2024-03-17T09:56:19;15.52;58.26
66019;HTU21D;52787;51.084;5.816;2024-03-17T09:58:46;15.61;57.62
66019;HTU21D;52787;51.084;5.816;2024-03-17T10:01:13;15.70;57.68
66019;HTU21D;52787;51.084;5.816;2024-03-17T10:03:51;15.89;57.34
66019;HTU21D;52787;51.084;5.816;2024-03-17T10:06:21;16.07;57.06
66019;HTU21D;52787;51.084;5.816;2024-03-17T10:08:50;16.19;56.16
66019;HTU21D;52787;51.084;5.816;2024-03-17T10:11:20;16.24;55.90
66019;HTU21D;52787;51.084;5.816;2024-03-17T10:13:59;16.18;55.61
66019;HTU21D;52787;51.084;5.816;2024-03-17T10:16:35;16.02;55.78
66019;HTU21D;52787;51.084;5.816;2024-03-17T10:24:22;15.72;56.84
66019;HTU21D;52787;51.084;5.816;2024-03-17T10:26:58;15.61;57.27
66019;HTU21D;52787;51.084;5.816;2024-03-17T10:31:58;15.53;57.44
66019;HTU21D;52787;51.084;5.816;2024-03-17T10:34:41;15.47;57.30
66019;HTU21D;52787;51.084;5.816;2024-03-17T10:37:13;15.46;57.85
66019;HTU21D;52787;51.084;5.816;2024-03-17T10:39:42;15.58;57.95
66019;HTU21D;52787;51.084;5.816;2024-03-17T10:42:11;15.66;57.22
66019;HTU21D;52787;51.084;5.816;2024-03-17T10:44:41;15.74;57.28
66019;HTU21D;52787;51.084;5.816;2024-03-17T10:47:31;15.87;57.32
66019;HTU21D;52787;51.084;5.816;2024-03-17T10:49:58;16.05;57.29
66019;HTU21D;52787;51.084;5.816;2024-03-17T10:52:33;16.25;57.24
66019;HTU21D;52787;51.084;5.816;2024-03-17T10:55:08;16.44;56.75
66019;HTU21D;52787;51.084;5.816;2024-03-17T10:57:45;16.62;56.29
66019;HTU21D;52787;51.084;5.816;2024-03-17T11:00:16;16.84;55.51
66019;HTU21D;52787;51.084;5.816;2024-03-17T11:02:44;16.98;55.36
66019;HTU21D;52787;51.084;5.816;2024-03-17T11:05:16;17.10;54.92
66019;HTU21D;52787;51.084;5.816;2024-03-17T11:07:46;17.03;54.40
66019;HTU21D;52787;51.084;5.816;2024-03-17T11:10:22;16.95;54.61
66019;HTU21D;52787;51.084;5.816;2024-03-17T11:12:49;16.88;54.53
66019;HTU21D;52787;51.084;5.816;2024-03-17T11:17:49;16.87;55.51
66019;HTU21D;52787;51.084;5.816;2024-03-17T11:20:25;16.98;54.91
66019;HTU21D;52787;51.084;5.816;2024-03-17T11:22:56;17.13;54.68
66019;HTU21D;52787;51.084;5.816;2024-03-17T11:27:59;17.24;53.73
66019;HTU21D;52787;51.084;5.816;2024-03-17T11:30:48;17.25;54.01
66019;HTU21D;52787;51.084;5.816;2024-03-17T11:41:49;17.16;54.12
66019;HTU21D;52787;51.084;5.816;2024-03-17T11:47:00;17.01;54.88
66019;HTU21D;52787;51.084;5.816;2024-03-17T11:49:37;16.98;54.73
66019;HTU21D;52787;51.084;5.816;2024-03-17T11:52:05;16.92;55.36
66019;HTU21D;52787;51.084;5.816;2024-03-17T11:54:36;16.94;55.44
66019;HTU21D;52787;51.084;5.816;2024-03-17T11:57:11;16.98;55.29
66019;HTU21D;52787;51.084;5.816;2024-03-17T11:59:38;16.99;55.22
66019;HTU21D;52787;51.084;5.816;2024-03-17T12:02:26;16.96;55.74
66019;HTU21D;52787;51.084;5.816;2024-03-17T12:04:57;16.93;55.19
66019;HTU21D;52787;51.084;5.816;2024-03-17T12:07:25;16.82;55.59
66019;HTU21D;52787;51.084;5.816;2024-03-17T12:09:54;16.84;55.97
66019;HTU21D;52787;51.084;5.816;2024-03-17T12:12:26;16.82;55.84
66019;HTU21D;52787;51.084;5.816;2024-03-17T12:15:15;16.82;55.87
66019;HTU21D;52787;51.084;5.816;2024-03-17T12:17:45;16.80;56.00
66019;HTU21D;52787;51.084;5.816;2024-03-17T12:20:19;16.73;56.24
66019;HTU21D;52787;51.084;5.816;2024-03-17T12:22:47;16.65;56.14
66019;HTU21D;52787;51.084;5.816;2024-03-17T12:25:19;16.59;56.36
66019;HTU21D;52787;51.084;5.816;2024-03-17T12:27:46;16.62;56.55
66019;HTU21D;52787;51.084;5.816;2024-03-17T12:30:15;16.65;56.39
66019;HTU21D;52787;51.084;5.816;2024-03-17T12:32:44;16.69;56.72
66019;HTU21D;52787;51.084;5.816;2024-03-17T12:35:16;16.73;56.84
66019;HTU21D;52787;51.084;5.816;2024-03-17T12:37:46;16.73;56.51
66019;HTU21D;52787;51.084;5.816;2024-03-17T12:40:20;16.74;56.61
66019;HTU21D;52787;51.084;5.816;2024-03-17T12:42:49;16.80;56.36
66019;HTU21D;52787;51.084;5.816;2024-03-17T12:45:22;16.82;56.38
66019;HTU21D;52787;51.084;5.816;2024-03-17T12:47:49;16.91;56.57
66019;HTU21D;52787;51.084;5.816;2024-03-17T12:50:16;17.00;56.03
66019;HTU21D;52787;51.084;5.816;2024-03-17T12:52:52;17.04;56.32
66019;HTU21D;52787;51.084;5.816;2024-03-17T12:55:20;17.11;56.00
66019;HTU21D;52787;51.084;5.816;2024-03-17T13:03:37;17.64;55.16
66019;HTU21D;52787;51.084;5.816;2024-03-17T13:06:08;18.13;54.58
66019;HTU21D;52787;51.084;5.816;2024-03-17T13:08:35;18.73;53.41
66019;HTU21D;52787;51.084;5.816;2024-03-17T13:11:01;19.23;51.10
66019;HTU21D;52787;51.084;5.816;2024-03-17T13:13:30;19.61;50.16
66019;HTU21D;52787;51.084;5.816;2024-03-17T13:15:57;20.19;47.79
66019;HTU21D;52787;51.084;5.816;2024-03-17T13:18:23;20.55;46.15
66019;HTU21D;52787;51.084;5.816;2024-03-17T13:20:50;21.24;46.20
66019;HTU21D;52787;51.084;5.816;2024-03-17T13:23:17;22.42;42.65
66019;HTU21D;52787;51.084;5.816;2024-03-17T13:25:43;23.26;41.71
66019;HTU21D;52787;51.084;5.816;2024-03-17T13:28:10;24.03;39.53
66019;HTU21D;52787;51.084;5.816;2024-03-17T13:30:36;24.12;38.69
66019;HTU21D;52787;51.084;5.816;2024-03-17T13:33:03;24.28;39.27
66019;HTU21D;52787;51.084;5.816;2024-03-17T13:35:38;24.29;38.36
66019;HTU21D;52787;51.084;5.816;2024-03-17T13:38:09;23.96;38.66
66019;HTU21D;52787;51.084;5.816;2024-03-17T13:40:37;23.54;39.54
66019;HTU21D;52787;51.084;5.816;2024-03-17T13:43:04;23.62;39.62
66019;HTU21D;52787;51.084;5.816;2024-03-17T13:45:41;23.53;38.30
66019;HTU21D;52787;51.084;5.816;2024-03-17T13:48:13;23.11;39.85
66019;HTU21D;52787;51.084;5.816;2024-03-17T13:50:40;23.31;39.96
66019;HTU21D;52787;51.084;5.816;2024-03-17T13:53:10;23.67;39.56
66019;HTU21D;52787;51.084;5.816;2024-03-17T13:55:36;24.45;38.11
66019;HTU21D;52787;51.084;5.816;2024-03-17T13:58:03;25.53;35.47
66019;HTU21D;52787;51.084;5.816;2024-03-17T14:00:31;26.01;34.03
66019;HTU21D;52787;51.084;5.816;2024-03-17T14:02:59;25.82;33.89
66019;HTU21D;52787;51.084;5.816;2024-03-17T14:05:26;25.24;34.62
66019;HTU21D;52787;51.084;5.816;2024-03-17T14:07:54;24.23;36.34
66019;HTU21D;52787;51.084;5.816;2024-03-17T14:10:22;23.18;38.27
66019;HTU21D;52787;51.084;5.816;2024-03-17T14:12:51;22.43;40.72
66019;HTU21D;52787;51.084;5.816;2024-03-17T14:15:19;21.97;41.75
66019;HTU21D;52787;51.084;5.816;2024-03-17T14:17:46;21.61;42.60
66019;HTU21D;52787;51.084;5.816;2024-03-17T14:20:15;21.28;43.33
66019;HTU21D;52787;51.084;5.816;2024-03-17T14:22:44;20.98;43.54
66019;HTU21D;52787;51.084;5.816;2024-03-17T14:25:18;20.69;44.43
66019;HTU21D;52787;51.084;5.816;2024-03-17T14:27:45;20.51;44.85
66019;HTU21D;52787;51.084;5.816;2024-03-17T14:30:18;20.33;45.53
66019;HTU21D;52787;51.084;5.816;2024-03-17T14:32:46;20.31;45.99
66019;HTU21D;52787;51.084;5.816;2024-03-17T14:35:15;20.43;45.99
66019;HTU21D;52787;51.084;5.816;2024-03-17T14:37:45;20.84;45.66
66019;HTU21D;52787;51.084;5.816;2024-03-17T14:40:15;21.23;44.57
66019;HTU21D;52787;51.084;5.816;2024-03-17T14:42:52;21.62;43.47
66019;HTU21D;52787;51.084;5.816;2024-03-17T14:45:18;21.90;43.17
66019;HTU21D;52787;51.084;5.816;2024-03-17T14:47:45;22.10;42.70
66019;HTU21D;52787;51.084;5.816;2024-03-17T14:50:12;22.55;42.19
66019;HTU21D;52787;51.084;5.816;2024-03-17T14:52:38;22.98;40.29
66019;HTU21D;52787;51.084;5.816;2024-03-17T14:55:06;23.18;40.91
66019;HTU21D;52787;51.084;5.816;2024-03-17T14:57:35;23.37;39.09
66019;HTU21D;52787;51.084;5.816;2024-03-17T15:00:03;23.14;39.04
66019;HTU21D;52787;51.084;5.816;2024-03-17T15:02:40;22.69;39.45
66019;HTU21D;52787;51.084;5.816;2024-03-17T15:05:09;22.29;40.27
66019;HTU21D;52787;51.084;5.816;2024-03-17T15:07:35;21.78;41.42
66019;HTU21D;52787;51.084;5.816;2024-03-17T15:10:01;21.30;42.34
66019;HTU21D;52787;51.084;5.816;2024-03-17T15:12:29;20.85;43.39
66019;HTU21D;52787;51.084;5.816;2024-03-17T15:14:55;20.63;44.51
66019;HTU21D;52787;51.084;5.816;2024-03-17T15:17:20;20.56;44.48
66019;HTU21D;52787;51.084;5.816;2024-03-17T15:19:47;20.48;44.96
66019;HTU21D;52787;51.084;5.816;2024-03-17T15:22:13;20.47;45.32
66019;HTU21D;52787;51.084;5.816;2024-03-17T15:24:39;20.41;45.34
66019;HTU21D;52787;51.084;5.816;2024-03-17T15:27:05;20.42;45.19
66019;HTU21D;52787;51.084;5.816;2024-03-17T15:29:31;20.45;45.19
66019;HTU21D;52787;51.084;5.816;2024-03-17T15:31:57;20.47;44.87
66019;HTU21D;52787;51.084;5.816;2024-03-17T15:34:23;20.44;44.89
66019;HTU21D;52787;51.084;5.816;2024-03-17T15:36:49;20.42;45.10
66019;HTU21D;52787;51.084;5.816;2024-03-17T15:39:18;20.37;45.45
66019;HTU21D;52787;51.084;5.816;2024-03-17T15:41:43;20.47;45.34
66019;HTU21D;52787;51.084;5.816;2024-03-17T15:44:09;20.43;44.77
66019;HTU21D;52787;51.084;5.816;2024-03-17T15:46:35;20.24;45.03
66019;HTU21D;52787;51.084;5.816;2024-03-17T15:49:02;20.01;45.99
66019;HTU21D;52787;51.084;5.816;2024-03-17T15:51:29;19.83;45.77
66019;HTU21D;52787;51.084;5.816;2024-03-17T15:53:55;19.44;46.41
66019;HTU21D;52787;51.084;5.816;2024-03-17T15:56:20;19.15;47.26
66019;HTU21D;52787;51.084;5.816;2024-03-17T15:58:46;18.97;48.28